Airfield :







YOU CAN JOIN US ON...

 
LOGIN :

Register | Disclaimer

   EN    FR    IT 

 









Legend :    VFR   Marginal VFR   IFR   Intensive IFR   Very Intensive IFR
Visi :
Ceiling :
>= 8 km
>= 3000ft
5 to 8 km
1000 to 3000 ft
1500m to 5 km
500 to 1000 ft
800 to 1500m
200 to 500 ft
< 800m
< 200 ft
Symbols :   Thunderstorms  Fog  Heavy snow  Heavy precipitations  Wind > 20 kt







- Airport Elevation : 489 ft


KHUL - Houlton International

CURRENT METAR :
  • 250153Z AUTO 00000KT 10SM CLR 10/07 A2989 RMK AO2 SLP122 T01000072

EXPIRED METARs :
  • 250053Z AUTO 00000KT 10SM CLR 12/08 A2987 RMK AO2 SLP116 T01220078
  • 242353Z AUTO 36005KT 10SM CLR 17/05 A2984 RMK AO2 SLP106 T01720050 10228 20172 53018

TAF KHUL
Valid from the 25 at 00:00 until the 26 at 00:00 UTC


242322Z 2500/2524 35004KT P6SM SKC
FM250600 VRB02KT P6SM SCT250
FM251200 18003KT P6SM SCT120 BKN220
FM251800 16006KT P6SM BKN100
FM252230 16008KT P6SM OVC080
KZBW FIR / North America



MET'MAP, your aeronautical weather chart ! - Copyright ORBIFLY December 2007 - Disclaimer

ORBIFLY MET'MAP TEAM :

Programming & Development : Alexandra Zaïnal
Concept & Development : Baudouin d'Aumeries
Co-Development & Prog : Marc-Olivier Méhu
Technical & hardware support : Manuel Goepfert

Contact : metmap@orbifly.com




SOURCES & CREDITS :

   NOAA